sensor_id;sensor_type;location;lat;lon;timestamp;temperature;humidity
17146;DHT22;8688;54.444;18.444;2023-04-24T00:01:30;11.70;99.90
17146;DHT22;8688;54.444;18.444;2023-04-24T00:03:59;11.70;99.90
17146;DHT22;8688;54.444;18.444;2023-04-24T00:06:27;11.70;99.90
17146;DHT22;8688;54.444;18.444;2023-04-24T00:08:59;11.70;99.90
17146;DHT22;8688;54.444;18.444;2023-04-24T00:11:27;11.80;99.90
17146;DHT22;8688;54.444;18.444;2023-04-24T00:13:57;11.80;99.90
17146;DHT22;8688;54.444;18.444;2023-04-24T00:16:25;11.80;99.90
17146;DHT22;8688;54.444;18.444;2023-04-24T00:18:52;11.80;99.90
17146;DHT22;8688;54.444;18.444;2023-04-24T00:21:20;11.80;99.90
17146;DHT22;8688;54.444;18.444;2023-04-24T00:23:51;11.80;99.90
17146;DHT22;8688;54.444;18.444;2023-04-24T00:26:18;11.80;99.90
17146;DHT22;8688;54.444;18.444;2023-04-24T00:28:46;11.70;99.90
17146;DHT22;8688;54.444;18.444;2023-04-24T00:31:15;11.80;99.90
17146;DHT22;8688;54.444;18.444;2023-04-24T00:33:42;11.80;99.90
17146;DHT22;8688;54.444;18.444;2023-04-24T00:36:09;11.80;99.90
17146;DHT22;8688;54.444;18.444;2023-04-24T00:38:37;11.70;99.90
17146;DHT22;8688;54.444;18.444;2023-04-24T00:41:04;11.80;99.90
17146;DHT22;8688;54.444;18.444;2023-04-24T00:43:32;11.80;99.90
17146;DHT22;8688;54.444;18.444;2023-04-24T00:45:59;11.80;99.90
17146;DHT22;8688;54.444;18.444;2023-04-24T00:48:28;11.80;99.90
17146;DHT22;8688;54.444;18.444;2023-04-24T00:50:56;11.80;99.90
17146;DHT22;8688;54.444;18.444;2023-04-24T00:53:24;11.80;99.90
17146;DHT22;8688;54.444;18.444;2023-04-24T00:55:51;11.80;99.90
17146;DHT22;8688;54.444;18.444;2023-04-24T00:58:19;11.70;99.90
17146;DHT22;8688;54.444;18.444;2023-04-24T01:00:48;11.70;99.90
17146;DHT22;8688;54.444;18.444;2023-04-24T01:03:19;11.60;99.90
17146;DHT22;8688;54.444;18.444;2023-04-24T01:05:49;11.60;99.90
17146;DHT22;8688;54.444;18.444;2023-04-24T01:08:17;11.50;99.90
17146;DHT22;8688;54.444;18.444;2023-04-24T01:10:44;11.50;99.90
17146;DHT22;8688;54.444;18.444;2023-04-24T01:13:14;11.50;99.90
17146;DHT22;8688;54.444;18.444;2023-04-24T01:15:41;11.50;99.90
17146;DHT22;8688;54.444;18.444;2023-04-24T01:18:09;11.40;99.90
17146;DHT22;8688;54.444;18.444;2023-04-24T01:20:37;11.40;99.90
17146;DHT22;8688;54.444;18.444;2023-04-24T01:23:08;11.30;99.90
17146;DHT22;8688;54.444;18.444;2023-04-24T01:25:36;11.20;99.90
17146;DHT22;8688;54.444;18.444;2023-04-24T01:28:04;11.30;99.90
17146;DHT22;8688;54.444;18.444;2023-04-24T01:30:32;11.20;99.90
17146;DHT22;8688;54.444;18.444;2023-04-24T01:32:59;11.20;99.90
17146;DHT22;8688;54.444;18.444;2023-04-24T01:35:27;11.20;99.90
17146;DHT22;8688;54.444;18.444;2023-04-24T01:37:54;11.20;99.90
17146;DHT22;8688;54.444;18.444;2023-04-24T01:40:23;11.20;99.90
17146;DHT22;8688;54.444;18.444;2023-04-24T01:42:51;11.20;99.90
17146;DHT22;8688;54.444;18.444;2023-04-24T01:45:18;11.20;99.90
17146;DHT22;8688;54.444;18.444;2023-04-24T01:47:46;11.20;99.90
17146;DHT22;8688;54.444;18.444;2023-04-24T01:50:14;11.20;99.90
17146;DHT22;8688;54.444;18.444;2023-04-24T01:52:42;11.20;99.90
17146;DHT22;8688;54.444;18.444;2023-04-24T01:55:10;11.10;99.90
17146;DHT22;8688;54.444;18.444;2023-04-24T01:57:40;11.20;99.90
17146;DHT22;8688;54.444;18.444;2023-04-24T02:00:08;11.20;99.90
17146;DHT22;8688;54.444;18.444;2023-04-24T02:02:37;11.20;99.90
17146;DHT22;8688;54.444;18.444;2023-04-24T02:05:06;11.20;99.90
17146;DHT22;8688;54.444;18.444;2023-04-24T02:07:34;11.10;99.90
17146;DHT22;8688;54.444;18.444;2023-04-24T02:10:01;11.20;99.90
17146;DHT22;8688;54.444;18.444;2023-04-24T02:12:29;11.10;99.90
17146;DHT22;8688;54.444;18.444;2023-04-24T02:14:58;11.10;99.90
17146;DHT22;8688;54.444;18.444;2023-04-24T02:17:26;11.10;99.90
17146;DHT22;8688;54.444;18.444;2023-04-24T02:19:53;11.10;99.90
17146;DHT22;8688;54.444;18.444;2023-04-24T02:22:20;11.10;99.90
17146;DHT22;8688;54.444;18.444;2023-04-24T02:24:48;11.00;99.90
17146;DHT22;8688;54.444;18.444;2023-04-24T02:27:15;11.00;99.90
17146;DHT22;8688;54.444;18.444;2023-04-24T02:29:43;11.00;99.90
17146;DHT22;8688;54.444;18.444;2023-04-24T02:32:12;11.00;99.90
17146;DHT22;8688;54.444;18.444;2023-04-24T02:34:41;11.00;99.90
17146;DHT22;8688;54.444;18.444;2023-04-24T02:37:08;10.90;99.90
17146;DHT22;8688;54.444;18.444;2023-04-24T02:39:36;10.80;99.90
17146;DHT22;8688;54.444;18.444;2023-04-24T02:42:03;10.80;99.90
17146;DHT22;8688;54.444;18.444;2023-04-24T02:44:31;10.80;99.90
17146;DHT22;8688;54.444;18.444;2023-04-24T02:46:58;10.80;99.90
17146;DHT22;8688;54.444;18.444;2023-04-24T02:49:27;10.80;99.90
17146;DHT22;8688;54.444;18.444;2023-04-24T02:51:54;10.80;99.90
17146;DHT22;8688;54.444;18.444;2023-04-24T02:54:22;10.80;99.90
17146;DHT22;8688;54.444;18.444;2023-04-24T02:56:49;10.80;99.90
17146;DHT22;8688;54.444;18.444;2023-04-24T02:59:17;10.80;99.90
17146;DHT22;8688;54.444;18.444;2023-04-24T03:01:44;10.80;99.90
17146;DHT22;8688;54.444;18.444;2023-04-24T03:04:11;10.80;99.90
17146;DHT22;8688;54.444;18.444;2023-04-24T03:06:40;10.80;99.90
17146;DHT22;8688;54.444;18.444;2023-04-24T03:09:08;10.70;99.90
17146;DHT22;8688;54.444;18.444;2023-04-24T03:11:35;10.70;99.90
17146;DHT22;8688;54.444;18.444;2023-04-24T03:14:02;10.70;99.90
17146;DHT22;8688;54.444;18.444;2023-04-24T03:16:30;10.70;99.90
17146;DHT22;8688;54.444;18.444;2023-04-24T03:18:58;10.60;99.90
17146;DHT22;8688;54.444;18.444;2023-04-24T03:21:26;10.70;99.90
17146;DHT22;8688;54.444;18.444;2023-04-24T03:23:55;10.70;99.90
17146;DHT22;8688;54.444;18.444;2023-04-24T03:26:22;10.70;99.90
17146;DHT22;8688;54.444;18.444;2023-04-24T03:28:50;10.70;99.90
17146;DHT22;8688;54.444;18.444;2023-04-24T03:31:18;10.70;99.90
17146;DHT22;8688;54.444;18.444;2023-04-24T03:33:46;10.70;99.90
17146;DHT22;8688;54.444;18.444;2023-04-24T03:36:14;10.80;99.90
17146;DHT22;8688;54.444;18.444;2023-04-24T03:38:41;10.80;99.90
17146;DHT22;8688;54.444;18.444;2023-04-24T03:41:10;10.70;99.90
17146;DHT22;8688;54.444;18.444;2023-04-24T03:43:38;10.70;99.90
17146;DHT22;8688;54.444;18.444;2023-04-24T03:46:05;10.70;99.90
17146;DHT22;8688;54.444;18.444;2023-04-24T03:48:35;10.70;99.90
17146;DHT22;8688;54.444;18.444;2023-04-24T03:51:02;10.70;99.90
17146;DHT22;8688;54.444;18.444;2023-04-24T03:53:30;10.70;99.90
17146;DHT22;8688;54.444;18.444;2023-04-24T03:55:57;10.70;99.90
17146;DHT22;8688;54.444;18.444;2023-04-24T03:58:26;10.70;99.90
17146;DHT22;8688;54.444;18.444;2023-04-24T04:00:53;10.70;99.90
17146;DHT22;8688;54.444;18.444;2023-04-24T04:03:22;10.70;99.90
17146;DHT22;8688;54.444;18.444;2023-04-24T04:05:51;10.70;99.90
17146;DHT22;8688;54.444;18.444;2023-04-24T04:08:19;10.70;99.90
17146;DHT22;8688;54.444;18.444;2023-04-24T04:10:49;10.70;99.90
17146;DHT22;8688;54.444;18.444;2023-04-24T04:13:19;10.70;99.90
17146;DHT22;8688;54.444;18.444;2023-04-24T04:15:49;10.70;99.90
17146;DHT22;8688;54.444;18.444;2023-04-24T04:18:16;10.70;99.90
17146;DHT22;8688;54.444;18.444;2023-04-24T04:20:43;10.60;99.90
17146;DHT22;8688;54.444;18.444;2023-04-24T04:23:11;10.70;99.90
17146;DHT22;8688;54.444;18.444;2023-04-24T04:25:38;10.60;99.90
17146;DHT22;8688;54.444;18.444;2023-04-24T04:28:05;10.60;99.90
17146;DHT22;8688;54.444;18.444;2023-04-24T04:30:33;10.60;99.90
17146;DHT22;8688;54.444;18.444;2023-04-24T04:33:02;10.60;99.90
17146;DHT22;8688;54.444;18.444;2023-04-24T04:35:29;10.70;99.90
17146;DHT22;8688;54.444;18.444;2023-04-24T04:37:56;10.70;99.90
17146;DHT22;8688;54.444;18.444;2023-04-24T04:40:24;10.70;99.90
17146;DHT22;8688;54.444;18.444;2023-04-24T04:42:52;10.70;99.90
17146;DHT22;8688;54.444;18.444;2023-04-24T04:45:19;10.70;99.90
17146;DHT22;8688;54.444;18.444;2023-04-24T04:47:47;10.70;99.90
17146;DHT22;8688;54.444;18.444;2023-04-24T04:50:16;10.70;99.90
17146;DHT22;8688;54.444;18.444;2023-04-24T04:52:45;10.80;99.90
17146;DHT22;8688;54.444;18.444;2023-04-24T04:55:12;10.80;99.90
17146;DHT22;8688;54.444;18.444;2023-04-24T04:57:40;10.80;99.90
17146;DHT22;8688;54.444;18.444;2023-04-24T05:00:09;10.90;99.90
17146;DHT22;8688;54.444;18.444;2023-04-24T05:02:37;10.90;99.90
17146;DHT22;8688;54.444;18.444;2023-04-24T05:05:06;10.90;99.90
17146;DHT22;8688;54.444;18.444;2023-04-24T05:07:35;10.80;99.90
17146;DHT22;8688;54.444;18.444;2023-04-24T05:10:03;10.90;99.90
17146;DHT22;8688;54.444;18.444;2023-04-24T05:12:31;10.90;99.90
17146;DHT22;8688;54.444;18.444;2023-04-24T05:14:58;10.80;99.90
17146;DHT22;8688;54.444;18.444;2023-04-24T05:17:26;10.90;99.90
17146;DHT22;8688;54.444;18.444;2023-04-24T05:19:53;10.90;99.90
17146;DHT22;8688;54.444;18.444;2023-04-24T05:22:21;10.90;99.90
17146;DHT22;8688;54.444;18.444;2023-04-24T05:24:51;11.00;99.90
17146;DHT22;8688;54.444;18.444;2023-04-24T05:27:19;11.00;99.90
17146;DHT22;8688;54.444;18.444;2023-04-24T05:29:47;11.10;99.90
17146;DHT22;8688;54.444;18.444;2023-04-24T05:32:14;11.20;99.90
17146;DHT22;8688;54.444;18.444;2023-04-24T05:34:41;11.30;99.90
17146;DHT22;8688;54.444;18.444;2023-04-24T05:37:09;11.50;99.90
17146;DHT22;8688;54.444;18.444;2023-04-24T05:39:36;11.60;99.90
17146;DHT22;8688;54.444;18.444;2023-04-24T05:42:05;11.60;99.90
17146;DHT22;8688;54.444;18.444;2023-04-24T05:44:33;11.60;99.90
17146;DHT22;8688;54.444;18.444;2023-04-24T05:47:00;11.60;99.90
17146;DHT22;8688;54.444;18.444;2023-04-24T05:49:27;11.60;99.90
17146;DHT22;8688;54.444;18.444;2023-04-24T05:51:55;11.60;99.90
17146;DHT22;8688;54.444;18.444;2023-04-24T05:54:22;11.60;99.90
17146;DHT22;8688;54.444;18.444;2023-04-24T05:56:49;11.60;99.90
17146;DHT22;8688;54.444;18.444;2023-04-24T05:59:18;11.70;99.90
17146;DHT22;8688;54.444;18.444;2023-04-24T06:01:46;11.70;99.90
17146;DHT22;8688;54.444;18.444;2023-04-24T06:04:14;11.80;99.90
17146;DHT22;8688;54.444;18.444;2023-04-24T06:06:41;11.90;99.90
17146;DHT22;8688;54.444;18.444;2023-04-24T06:09:09;12.00;99.90
17146;DHT22;8688;54.444;18.444;2023-04-24T06:11:36;12.10;99.90
17146;DHT22;8688;54.444;18.444;2023-04-24T06:14:03;12.10;99.90
17146;DHT22;8688;54.444;18.444;2023-04-24T06:16:32;12.10;99.90
17146;DHT22;8688;54.444;18.444;2023-04-24T06:18:59;12.10;99.90
17146;DHT22;8688;54.444;18.444;2023-04-24T06:21:27;12.00;99.90
17146;DHT22;8688;54.444;18.444;2023-04-24T06:23:54;12.00;99.90
17146;DHT22;8688;54.444;18.444;2023-04-24T06:26:22;11.90;99.90
17146;DHT22;8688;54.444;18.444;2023-04-24T06:28:51;11.80;99.90
17146;DHT22;8688;54.444;18.444;2023-04-24T06:31:19;11.70;99.90
17146;DHT22;8688;54.444;18.444;2023-04-24T06:33:49;11.80;99.90
17146;DHT22;8688;54.444;18.444;2023-04-24T06:36:17;11.70;99.90
17146;DHT22;8688;54.444;18.444;2023-04-24T06:38:44;11.70;99.90
17146;DHT22;8688;54.444;18.444;2023-04-24T06:41:12;11.80;99.90
17146;DHT22;8688;54.444;18.444;2023-04-24T06:43:39;11.70;99.90
17146;DHT22;8688;54.444;18.444;2023-04-24T06:46:07;11.60;99.90
17146;DHT22;8688;54.444;18.444;2023-04-24T06:48:34;11.60;99.90
17146;DHT22;8688;54.444;18.444;2023-04-24T06:51:03;11.60;99.90
17146;DHT22;8688;54.444;18.444;2023-04-24T06:53:31;11.60;99.90
17146;DHT22;8688;54.444;18.444;2023-04-24T06:55:59;11.70;99.90
17146;DHT22;8688;54.444;18.444;2023-04-24T06:58:26;11.70;99.90
17146;DHT22;8688;54.444;18.444;2023-04-24T07:00:54;11.80;99.90
17146;DHT22;8688;54.444;18.444;2023-04-24T07:03:21;11.80;99.90
17146;DHT22;8688;54.444;18.444;2023-04-24T07:05:48;11.70;93.40
17146;DHT22;8688;54.444;18.444;2023-04-24T07:08:18;11.60;85.80
17146;DHT22;8688;54.444;18.444;2023-04-24T07:10:48;11.40;79.80
17146;DHT22;8688;54.444;18.444;2023-04-24T07:13:16;11.40;86.00
17146;DHT22;8688;54.444;18.444;2023-04-24T07:15:44;11.30;83.50
17146;DHT22;8688;54.444;18.444;2023-04-24T07:18:11;11.30;86.30
17146;DHT22;8688;54.444;18.444;2023-04-24T07:20:39;11.20;85.60
17146;DHT22;8688;54.444;18.444;2023-04-24T07:23:07;11.30;86.50
17146;DHT22;8688;54.444;18.444;2023-04-24T07:25:36;11.30;85.10
17146;DHT22;8688;54.444;18.444;2023-04-24T07:28:04;11.40;80.30
17146;DHT22;8688;54.444;18.444;2023-04-24T07:30:31;11.50;72.70
17146;DHT22;8688;54.444;18.444;2023-04-24T07:32:59;11.40;63.10
17146;DHT22;8688;54.444;18.444;2023-04-24T07:35:27;11.40;57.00
17146;DHT22;8688;54.444;18.444;2023-04-24T07:37:54;11.30;56.10
17146;DHT22;8688;54.444;18.444;2023-04-24T07:40:22;11.30;59.80
17146;DHT22;8688;54.444;18.444;2023-04-24T07:42:51;11.40;58.90
17146;DHT22;8688;54.444;18.444;2023-04-24T07:45:19;11.40;57.50
17146;DHT22;8688;54.444;18.444;2023-04-24T07:47:46;11.30;57.40
17146;DHT22;8688;54.444;18.444;2023-04-24T07:50:13;11.30;60.50
17146;DHT22;8688;54.444;18.444;2023-04-24T07:52:42;11.20;58.80
17146;DHT22;8688;54.444;18.444;2023-04-24T07:55:09;11.30;75.70
17146;DHT22;8688;54.444;18.444;2023-04-24T07:57:36;11.20;66.30
17146;DHT22;8688;54.444;18.444;2023-04-24T08:00:07;11.00;74.20
17146;DHT22;8688;54.444;18.444;2023-04-24T08:02:35;10.90;91.40
17146;DHT22;8688;54.444;18.444;2023-04-24T08:05:02;11.00;98.40
17146;DHT22;8688;54.444;18.444;2023-04-24T08:07:30;11.10;99.90
17146;DHT22;8688;54.444;18.444;2023-04-24T08:09:57;11.20;99.90
17146;DHT22;8688;54.444;18.444;2023-04-24T08:12:25;11.30;99.90
17146;DHT22;8688;54.444;18.444;2023-04-24T08:14:53;11.40;98.70
17146;DHT22;8688;54.444;18.444;2023-04-24T08:17:22;11.70;99.90
17146;DHT22;8688;54.444;18.444;2023-04-24T08:19:49;11.90;99.90
17146;DHT22;8688;54.444;18.444;2023-04-24T08:22:18;12.10;98.80
17146;DHT22;8688;54.444;18.444;2023-04-24T08:24:45;12.30;92.50
17146;DHT22;8688;54.444;18.444;2023-04-24T08:27:12;12.40;91.00
17146;DHT22;8688;54.444;18.444;2023-04-24T08:29:40;12.40;99.90
17146;DHT22;8688;54.444;18.444;2023-04-24T08:32:07;12.40;99.90
17146;DHT22;8688;54.444;18.444;2023-04-24T08:34:36;12.40;99.90
17146;DHT22;8688;54.444;18.444;2023-04-24T08:37:04;12.50;83.10
17146;DHT22;8688;54.444;18.444;2023-04-24T08:39:31;12.60;82.30
17146;DHT22;8688;54.444;18.444;2023-04-24T08:41:59;12.80;81.90
17146;DHT22;8688;54.444;18.444;2023-04-24T08:44:31;12.90;76.40
17146;DHT22;8688;54.444;18.444;2023-04-24T08:46:59;13.00;70.10
17146;DHT22;8688;54.444;18.444;2023-04-24T08:49:28;13.00;70.70
17146;DHT22;8688;54.444;18.444;2023-04-24T08:51:57;13.00;73.10
17146;DHT22;8688;54.444;18.444;2023-04-24T08:54:25;13.00;82.20
17146;DHT22;8688;54.444;18.444;2023-04-24T08:56:54;13.10;82.30
17146;DHT22;8688;54.444;18.444;2023-04-24T08:59:28;13.10;86.10
17146;DHT22;8688;54.444;18.444;2023-04-24T09:01:55;13.30;82.20
17146;DHT22;8688;54.444;18.444;2023-04-24T09:04:24;13.30;74.50
17146;DHT22;8688;54.444;18.444;2023-04-24T09:06:52;13.50;69.00
17146;DHT22;8688;54.444;18.444;2023-04-24T09:09:24;13.60;62.20
17146;DHT22;8688;54.444;18.444;2023-04-24T09:11:52;13.70;61.30
17146;DHT22;8688;54.444;18.444;2023-04-24T09:14:21;13.90;57.70
17146;DHT22;8688;54.444;18.444;2023-04-24T09:16:49;14.00;56.70
17146;DHT22;8688;54.444;18.444;2023-04-24T09:19:17;14.10;55.00
17146;DHT22;8688;54.444;18.444;2023-04-24T09:21:46;14.10;53.90
17146;DHT22;8688;54.444;18.444;2023-04-24T09:24:16;14.20;55.00
17146;DHT22;8688;54.444;18.444;2023-04-24T09:26:45;14.30;56.20
17146;DHT22;8688;54.444;18.444;2023-04-24T09:29:15;14.50;54.40
17146;DHT22;8688;54.444;18.444;2023-04-24T09:31:43;14.60;52.80
17146;DHT22;8688;54.444;18.444;2023-04-24T09:34:10;14.50;44.70
17146;DHT22;8688;54.444;18.444;2023-04-24T09:36:38;14.50;47.70
17146;DHT22;8688;54.444;18.444;2023-04-24T09:39:08;14.60;49.40
17146;DHT22;8688;54.444;18.444;2023-04-24T09:41:45;14.60;46.30
17146;DHT22;8688;54.444;18.444;2023-04-24T09:44:14;14.60;45.70
17146;DHT22;8688;54.444;18.444;2023-04-24T09:46:42;14.60;45.10
17146;DHT22;8688;54.444;18.444;2023-04-24T09:49:13;14.60;42.40
17146;DHT22;8688;54.444;18.444;2023-04-24T09:51:41;14.60;44.70
17146;DHT22;8688;54.444;18.444;2023-04-24T09:54:14;14.70;44.50
17146;DHT22;8688;54.444;18.444;2023-04-24T09:56:45;14.80;43.50
17146;DHT22;8688;54.444;18.444;2023-04-24T09:59:13;15.00;44.50
17146;DHT22;8688;54.444;18.444;2023-04-24T10:01:41;15.20;43.20
17146;DHT22;8688;54.444;18.444;2023-04-24T10:04:17;15.30;41.00
17146;DHT22;8688;54.444;18.444;2023-04-24T10:06:46;15.40;42.70
17146;DHT22;8688;54.444;18.444;2023-04-24T10:09:15;15.50;40.30
17146;DHT22;8688;54.444;18.444;2023-04-24T10:11:43;15.60;38.70
17146;DHT22;8688;54.444;18.444;2023-04-24T10:14:15;15.70;43.00
17146;DHT22;8688;54.444;18.444;2023-04-24T10:16:43;15.90;40.60
17146;DHT22;8688;54.444;18.444;2023-04-24T10:19:13;16.00;82.90
17146;DHT22;8688;54.444;18.444;2023-04-24T10:21:42;16.10;83.60
17146;DHT22;8688;54.444;18.444;2023-04-24T10:24:12;16.20;99.90
17146;DHT22;8688;54.444;18.444;2023-04-24T10:26:41;16.20;99.90
17146;DHT22;8688;54.444;18.444;2023-04-24T10:29:10;16.30;99.90
17146;DHT22;8688;54.444;18.444;2023-04-24T10:31:40;16.40;99.90
17146;DHT22;8688;54.444;18.444;2023-04-24T10:34:09;16.40;99.90
17146;DHT22;8688;54.444;18.444;2023-04-24T10:36:41;16.50;99.90
17146;DHT22;8688;54.444;18.444;2023-04-24T10:39:13;16.60;99.90
17146;DHT22;8688;54.444;18.444;2023-04-24T10:41:42;16.60;99.90
17146;DHT22;8688;54.444;18.444;2023-04-24T10:44:10;16.70;99.90
17146;DHT22;8688;54.444;18.444;2023-04-24T10:46:43;16.80;99.90
17146;DHT22;8688;54.444;18.444;2023-04-24T10:49:11;17.00;99.90
17146;DHT22;8688;54.444;18.444;2023-04-24T10:51:47;17.30;99.90
17146;DHT22;8688;54.444;18.444;2023-04-24T10:54:25;17.50;99.90
17146;DHT22;8688;54.444;18.444;2023-04-24T10:56:53;17.50;99.90
17146;DHT22;8688;54.444;18.444;2023-04-24T10:59:40;17.50;99.90
17146;DHT22;8688;54.444;18.444;2023-04-24T11:02:09;17.50;99.90
17146;DHT22;8688;54.444;18.444;2023-04-24T11:04:37;17.50;99.90
17146;DHT22;8688;54.444;18.444;2023-04-24T11:07:04;17.50;99.90
17146;DHT22;8688;54.444;18.444;2023-04-24T11:09:33;17.50;99.90
17146;DHT22;8688;54.444;18.444;2023-04-24T11:12:06;17.60;99.90
17146;DHT22;8688;54.444;18.444;2023-04-24T11:15:03;17.60;99.90
17146;DHT22;8688;54.444;18.444;2023-04-24T11:17:33;17.70;99.90
17146;DHT22;8688;54.444;18.444;2023-04-24T11:20:03;17.90;99.90
17146;DHT22;8688;54.444;18.444;2023-04-24T11:22:34;18.10;99.90
17146;DHT22;8688;54.444;18.444;2023-04-24T11:25:02;18.30;99.90
17146;DHT22;8688;54.444;18.444;2023-04-24T11:27:31;18.40;99.90
17146;DHT22;8688;54.444;18.444;2023-04-24T11:30:00;18.40;99.90
17146;DHT22;8688;54.444;18.444;2023-04-24T11:32:34;18.40;99.90
17146;DHT22;8688;54.444;18.444;2023-04-24T11:35:04;18.50;99.90
17146;DHT22;8688;54.444;18.444;2023-04-24T11:37:37;18.50;99.90
17146;DHT22;8688;54.444;18.444;2023-04-24T11:40:06;18.60;99.90
17146;DHT22;8688;54.444;18.444;2023-04-24T11:42:35;18.60;99.90
17146;DHT22;8688;54.444;18.444;2023-04-24T11:45:07;18.70;99.90
17146;DHT22;8688;54.444;18.444;2023-04-24T11:47:38;18.80;99.90
17146;DHT22;8688;54.444;18.444;2023-04-24T11:50:07;18.80;99.90
17146;DHT22;8688;54.444;18.444;2023-04-24T11:52:38;18.80;99.90
17146;DHT22;8688;54.444;18.444;2023-04-24T11:55:09;19.00;99.90
17146;DHT22;8688;54.444;18.444;2023-04-24T11:57:57;19.20;99.90
17146;DHT22;8688;54.444;18.444;2023-04-24T12:00:26;19.40;99.90
17146;DHT22;8688;54.444;18.444;2023-04-24T12:03:05;19.40;99.90
17146;DHT22;8688;54.444;18.444;2023-04-24T12:05:33;19.50;99.90
17146;DHT22;8688;54.444;18.444;2023-04-24T12:08:01;19.40;99.90
17146;DHT22;8688;54.444;18.444;2023-04-24T12:10:30;19.40;99.90
17146;DHT22;8688;54.444;18.444;2023-04-24T12:12:59;19.60;99.90
17146;DHT22;8688;54.444;18.444;2023-04-24T12:15:27;19.70;99.90
17146;DHT22;8688;54.444;18.444;2023-04-24T12:17:55;19.50;99.90
17146;DHT22;8688;54.444;18.444;2023-04-24T12:20:29;19.30;99.90
17146;DHT22;8688;54.444;18.444;2023-04-24T12:22:57;19.30;99.90
17146;DHT22;8688;54.444;18.444;2023-04-24T12:25:27;19.30;99.90
17146;DHT22;8688;54.444;18.444;2023-04-24T12:28:09;19.30;99.90
17146;DHT22;8688;54.444;18.444;2023-04-24T12:30:40;19.30;99.90
17146;DHT22;8688;54.444;18.444;2023-04-24T12:33:10;19.20;99.90
17146;DHT22;8688;54.444;18.444;2023-04-24T12:35:40;19.10;99.90
17146;DHT22;8688;54.444;18.444;2023-04-24T12:38:09;19.10;99.90
17146;DHT22;8688;54.444;18.444;2023-04-24T12:40:39;19.10;99.90
17146;DHT22;8688;54.444;18.444;2023-04-24T12:43:14;19.00;99.90
17146;DHT22;8688;54.444;18.444;2023-04-24T12:45:42;19.10;99.90
17146;DHT22;8688;54.444;18.444;2023-04-24T12:48:10;19.20;99.90
17146;DHT22;8688;54.444;18.444;2023-04-24T12:50:41;19.70;99.90
17146;DHT22;8688;54.444;18.444;2023-04-24T12:53:09;20.30;99.90
17146;DHT22;8688;54.444;18.444;2023-04-24T12:55:37;20.70;99.90
17146;DHT22;8688;54.444;18.444;2023-04-24T12:58:05;21.00;99.90
17146;DHT22;8688;54.444;18.444;2023-04-24T13:00:32;20.80;99.90
17146;DHT22;8688;54.444;18.444;2023-04-24T13:03:01;20.60;99.90
17146;DHT22;8688;54.444;18.444;2023-04-24T13:05:28;20.40;99.90
17146;DHT22;8688;54.444;18.444;2023-04-24T13:07:57;20.00;99.90
17146;DHT22;8688;54.444;18.444;2023-04-24T13:10:24;19.80;99.90
17146;DHT22;8688;54.444;18.444;2023-04-24T13:12:52;19.50;99.90
17146;DHT22;8688;54.444;18.444;2023-04-24T13:15:19;19.30;99.90
17146;DHT22;8688;54.444;18.444;2023-04-24T13:17:47;19.30;99.90
17146;DHT22;8688;54.444;18.444;2023-04-24T13:20:14;19.20;99.90
17146;DHT22;8688;54.444;18.444;2023-04-24T13:22:42;19.10;99.90
17146;DHT22;8688;54.444;18.444;2023-04-24T13:25:11;19.00;99.90
17146;DHT22;8688;54.444;18.444;2023-04-24T13:27:39;19.00;99.90
17146;DHT22;8688;54.444;18.444;2023-04-24T13:30:07;18.90;99.90
17146;DHT22;8688;54.444;18.444;2023-04-24T13:32:35;18.90;99.90
17146;DHT22;8688;54.444;18.444;2023-04-24T13:35:03;19.00;99.90
17146;DHT22;8688;54.444;18.444;2023-04-24T13:37:31;19.20;99.90
17146;DHT22;8688;54.444;18.444;2023-04-24T13:39:58;19.80;99.90
17146;DHT22;8688;54.444;18.444;2023-04-24T13:42:27;20.30;99.90
17146;DHT22;8688;54.444;18.444;2023-04-24T13:44:55;20.40;99.90
17146;DHT22;8688;54.444;18.444;2023-04-24T13:47:22;20.20;99.90
17146;DHT22;8688;54.444;18.444;2023-04-24T13:49:50;20.40;99.90
17146;DHT22;8688;54.444;18.444;2023-04-24T13:52:17;20.40;99.90
17146;DHT22;8688;54.444;18.444;2023-04-24T13:54:44;20.70;99.90
17146;DHT22;8688;54.444;18.444;2023-04-24T13:57:13;21.00;99.90
17146;DHT22;8688;54.444;18.444;2023-04-24T13:59:42;20.90;99.90
17146;DHT22;8688;54.444;18.444;2023-04-24T14:02:11;20.70;99.90
17146;DHT22;8688;54.444;18.444;2023-04-24T14:04:39;20.80;99.90
17146;DHT22;8688;54.444;18.444;2023-04-24T14:07:06;21.10;99.90
17146;DHT22;8688;54.444;18.444;2023-04-24T14:09:35;21.20;99.90
17146;DHT22;8688;54.444;18.444;2023-04-24T14:12:02;20.90;99.90
17146;DHT22;8688;54.444;18.444;2023-04-24T14:14:32;20.80;99.90
17146;DHT22;8688;54.444;18.444;2023-04-24T14:17:02;20.90;99.90
17146;DHT22;8688;54.444;18.444;2023-04-24T14:19:30;21.10;99.90
17146;DHT22;8688;54.444;18.444;2023-04-24T14:21:58;21.30;99.90
17146;DHT22;8688;54.444;18.444;2023-04-24T14:24:26;21.40;99.90
17146;DHT22;8688;54.444;18.444;2023-04-24T14:26:56;21.30;99.90
17146;DHT22;8688;54.444;18.444;2023-04-24T14:29:24;21.30;99.90
17146;DHT22;8688;54.444;18.444;2023-04-24T14:31:54;21.30;99.90
17146;DHT22;8688;54.444;18.444;2023-04-24T14:34:24;21.30;99.90
17146;DHT22;8688;54.444;18.444;2023-04-24T14:36:53;21.40;99.90
17146;DHT22;8688;54.444;18.444;2023-04-24T14:39:21;21.60;99.90
17146;DHT22;8688;54.444;18.444;2023-04-24T14:41:49;21.70;99.90
17146;DHT22;8688;54.444;18.444;2023-04-24T14:44:17;21.70;99.90
17146;DHT22;8688;54.444;18.444;2023-04-24T14:46:47;21.60;99.90
17146;DHT22;8688;54.444;18.444;2023-04-24T14:49:16;21.50;99.90
17146;DHT22;8688;54.444;18.444;2023-04-24T14:51:47;21.40;99.90
17146;DHT22;8688;54.444;18.444;2023-04-24T14:54:15;21.50;99.90
17146;DHT22;8688;54.444;18.444;2023-04-24T14:56:44;21.30;99.90
17146;DHT22;8688;54.444;18.444;2023-04-24T14:59:12;21.10;99.90
17146;DHT22;8688;54.444;18.444;2023-04-24T15:01:41;20.80;99.90
17146;DHT22;8688;54.444;18.444;2023-04-24T15:04:09;20.60;99.90
17146;DHT22;8688;54.444;18.444;2023-04-24T15:06:37;20.20;99.90
17146;DHT22;8688;54.444;18.444;2023-04-24T15:09:07;19.90;99.90
17146;DHT22;8688;54.444;18.444;2023-04-24T15:11:37;19.60;99.90
17146;DHT22;8688;54.444;18.444;2023-04-24T15:14:04;19.50;99.90
17146;DHT22;8688;54.444;18.444;2023-04-24T15:16:32;19.30;99.90
17146;DHT22;8688;54.444;18.444;2023-04-24T15:19:01;19.10;99.90
17146;DHT22;8688;54.444;18.444;2023-04-24T15:21:29;18.80;99.90
17146;DHT22;8688;54.444;18.444;2023-04-24T15:23:57;18.60;99.90
17146;DHT22;8688;54.444;18.444;2023-04-24T15:26:27;18.40;99.90
17146;DHT22;8688;54.444;18.444;2023-04-24T15:28:55;18.20;99.90
17146;DHT22;8688;54.444;18.444;2023-04-24T15:31:23;17.90;99.90
17146;DHT22;8688;54.444;18.444;2023-04-24T15:33:51;17.60;99.90
17146;DHT22;8688;54.444;18.444;2023-04-24T15:36:19;17.20;99.90
17146;DHT22;8688;54.444;18.444;2023-04-24T15:38:50;17.00;99.90